Аэропорт: Магнитогорск. Магнитогорск

ICAO: USCM

METAR:
2020-10-19 15:00:00
USCM 191500Z 23004MPS 9999 BKN040CB 11/06 Q1016 R18/090060 NOSIG RMK QFE724
METAR:
Информация по данной станции не доступна